Time;durP1;ratioP1;P1;durP2;ratioP2;P2;SDS_P1;SDS_P2;PMS_P1;PMS_P2;Temp;Humidity;BMP_temperature;BMP_pressure;BME280_temperature;BME280_humidity;BME280_pressure;Samples;Min_cycle;Max_cycle;Signal;HPM_P1;HPM_P2
2021/05/21 00:00:14;;;;;;;;;;;;;;;19.23;39.80;100319.78;5300060;27;33648;-92
2021/05/21 00:02:43;;;;;;;;;;;;;;;18.84;40.56;100314.03;5293679;27;33272;-93
2021/05/21 00:05:11;;;;;;;;;;;;;;;17.98;42.70;100319.53;5264471;27;873723;-91
2021/05/21 00:07:38;;;;;;;;;;;;;;;19.38;39.30;100312.75;5278546;27;31757;-91
2021/05/21 00:10:10;;;;;;;;;;;;;;;19.16;39.86;100319.28;5299834;27;33831;-92
2021/05/21 00:12:39;;;;;;;;;;;;;;;19.58;38.93;100303.62;5299652;27;34338;-91
2021/05/21 00:15:07;;;;;;;;;;;;;;;19.47;39.17;100303.44;5299616;27;32809;-92
2021/05/21 00:17:35;;;;;;;;;;;;;;;19.10;39.80;100308.22;5299791;27;32108;-91
2021/05/21 00:20:05;;;;;;;;;;;;;;;19.02;39.92;100304.22;5299518;27;32897;-91
2021/05/21 00:22:33;;;;;;;;;;;;;;;18.34;41.55;100309.75;5299531;27;33127;-91
2021/05/21 00:25:01;;;;;;;;;;;;;;;18.51;41.19;100303.56;5281565;27;32977;-90
2021/05/21 00:27:29;;;;;;;;;;;;;;;18.62;41.10;100302.97;5299964;27;33229;-92
2021/05/21 00:29:58;;;;;;;;;;;;;;;18.70;40.95;100306.03;5263392;27;32961;-91
2021/05/21 00:32:26;;;;;;;;;;;;;;;17.25;44.20;100305.69;5318079;27;34020;-93
2021/05/21 00:34:59;;;;;;;;;;;;;;;17.98;42.80;100302.88;5317782;26;32966;-92
2021/05/21 00:37:28;;;;;;;;;;;;;;;18.36;41.86;100310.50;5299311;27;31882;-91
2021/05/21 00:39:55;;;;;;;;;;;;;;;18.03;42.67;100309.59;5299107;27;32821;-92
2021/05/21 00:42:23;;;;;;;;;;;;;;;17.89;42.99;100304.19;5299524;27;34101;-92
2021/05/21 00:44:58;;;;;;;;;;;;;;;18.02;42.70;100309.69;5281660;27;32712;-92
2021/05/21 00:47:26;;;;;;;;;;;;;;;18.44;41.80;100305.69;5299323;27;31992;-91
2021/05/21 00:49:58;;;;;;;;;;;;;;;19.22;39.96;100301.37;5299120;27;32821;-91
2021/05/21 00:52:28;;;;;;;;;;;;;;;19.39;39.21;100303.03;5281747;27;33469;-92
2021/05/21 00:54:56;;;;;;;;;;;;;;;18.36;41.65;100299.94;5281388;27;32814;-91
2021/05/21 00:57:24;;;;;;;;;;;;;;;18.39;41.49;100309.50;5281616;27;32021;-92
2021/05/21 00:59:52;;;;;;;;;;;;;;;17.57;43.72;100311.13;5282415;27;32947;-93
2021/05/21 01:02:21;;;;;;;;;;;;;;;17.82;43.23;100321.25;5282477;27;32906;-92
2021/05/21 01:04:50;;;;;;;;;;;;;;;15.99;47.78;100311.53;5282387;27;34181;-92
2021/05/21 01:07:19;;;;;;;;;;;;;;;18.26;42.32;100315.44;5264317;27;32039;-91
2021/05/21 01:09:49;;;;;;;;;;;;;;;18.09;42.35;100316.34;5300139;27;33079;-92
2021/05/21 01:12:17;;;;;;;;;;;;;;;18.30;42.07;100319.63;5282577;27;33062;-93
2021/05/21 01:14:48;;;;;;;;;;;;;;;17.36;44.15;100322.69;5282007;27;32677;-93
2021/05/21 01:17:17;;;;;;;;;;;;;;;17.93;42.89;100326.84;5318531;27;32458;-92
2021/05/21 01:19:46;;;;;;;;;;;;;;;17.97;42.68;100324.91;5300342;27;33853;-92
2021/05/21 01:22:16;;;;;;;;;;;;;;;18.26;42.11;100319.88;5282625;27;32930;-92
2021/05/21 01:24:45;;;;;;;;;;;;;;;17.81;43.22;100319.53;5300260;27;33606;-93
2021/05/21 01:27:13;;;;;;;;;;;;;;;18.57;41.25;100319.03;5282178;27;32452;-91
2021/05/21 01:29:41;;;;;;;;;;;;;;;18.45;41.58;100322.34;5282094;27;33205;-92
2021/05/21 01:32:11;;;;;;;;;;;;;;;18.90;40.34;100326.03;5282613;27;33107;-93
2021/05/21 01:34:44;;;;;;;;;;;;;;;18.45;41.69;100331.09;5283042;27;32794;-91
2021/05/21 01:37:12;;;;;;;;;;;;;;;18.24;41.88;100341.06;5294406;27;31967;-91
2021/05/21 01:39:54;;;;;;;;;;;;;;;18.67;40.91;100336.06;5299822;27;33915;-92
2021/05/21 01:42:28;;;;;;;;;;;;;;;18.86;40.69;100338.53;5318645;27;33171;-92
2021/05/21 01:44:57;;;;;;;;;;;;;;;19.34;39.38;100343.81;5282266;27;33202;-91
2021/05/21 01:47:27;;;;;;;;;;;;;;;19.04;39.92;100338.47;5282435;27;32432;-93
2021/05/21 01:49:57;;;;;;;;;;;;;;;18.54;40.55;100337.69;5282700;27;32883;-92
2021/05/21 01:52:27;;;;;;;;;;;;;;;18.77;40.14;100340.84;5283169;27;33362;-91
2021/05/21 01:55:15;;;;;;;;;;;;;;;18.90;40.05;100335.75;5285282;27;32734;-92
2021/05/21 01:57:45;;;;;;;;;;;;;;;18.99;39.87;100335.25;5282623;27;32510;-92
2021/05/21 02:00:15;;;;;;;;;;;;;;;18.92;40.03;100336.50;5282510;27;33093;-91
2021/05/21 02:02:44;;;;;;;;;;;;;;;19.47;38.77;100333.34;5282345;27;34217;-92
2021/05/21 02:05:12;;;;;;;;;;;;;;;18.27;41.50;100337.38;5283663;27;32949;-92
2021/05/21 02:07:47;;;;;;;;;;;;;;;18.22;42.00;100334.16;5282979;27;32094;-92
2021/05/21 02:10:15;;;;;;;;;;;;;;;17.95;42.65;100340.81;5282509;27;33094;-92
2021/05/21 02:12:46;;;;;;;;;;;;;;;18.55;41.28;100335.87;5283738;27;33303;-91
2021/05/21 02:15:14;;;;;;;;;;;;;;;17.94;42.40;100328.56;5301374;27;33679;-92
2021/05/21 02:17:42;;;;;;;;;;;;;;;18.66;40.78;100329.09;5302576;27;32177;-92
2021/05/21 02:20:13;;;;;;;;;;;;;;;18.09;42.30;100329.53;5282490;27;32866;-92
2021/05/21 02:22:41;;;;;;;;;;;;;;;18.43;41.06;100332.16;5282471;27;32951;-94
2021/05/21 02:25:10;;;;;;;;;;;;;;;18.13;41.62;100338.13;5282214;27;32994;-92
2021/05/21 02:27:39;;;;;;;;;;;;;;;18.03;42.01;100330.69;5300195;27;32271;-93
2021/05/21 02:30:09;;;;;;;;;;;;;;;18.67;40.66;100322.03;5281854;27;32984;-92
2021/05/21 02:32:39;;;;;;;;;;;;;;;17.49;43.50;100332.59;5299538;27;33390;-93
2021/05/21 02:35:08;;;;;;;;;;;;;;;17.99;41.92;100328.31;5300106;27;33768;-92
2021/05/21 02:37:36;;;;;;;;;;;;;;;18.48;41.01;100327.44;5299540;27;32436;-91
2021/05/21 02:40:06;;;;;;;;;;;;;;;17.46;43.46;100327.47;5300198;27;33027;-93
2021/05/21 02:42:37;;;;;;;;;;;;;;;17.96;42.40;100325.81;5283459;27;33102;-91
2021/05/21 02:45:07;;;;;;;;;;;;;;;17.22;44.18;100324.25;5306883;27;32798;-91
2021/05/21 02:47:35;;;;;;;;;;;;;;;17.82;42.69;100318.63;5307470;27;33267;-91
2021/05/21 02:50:04;;;;;;;;;;;;;;;18.25;41.38;100324.28;5296037;27;34026;-93
2021/05/21 02:52:32;;;;;;;;;;;;;;;17.93;42.07;100331.28;5312838;27;34201;-92
2021/05/21 02:55:01;;;;;;;;;;;;;;;17.77;42.77;100331.19;5307156;27;32726;-92
2021/05/21 02:57:28;;;;;;;;;;;;;;;18.59;40.86;100330.38;5307895;27;31796;-91
2021/05/21 02:59:58;;;;;;;;;;;;;;;18.01;41.63;100322.00;5290609;27;33353;-91
2021/05/21 03:02:26;;;;;;;;;;;;;;;18.02;41.98;100321.09;5288640;27;33429;-92
2021/05/21 03:04:55;;;;;;;;;;;;;;;18.01;42.07;100329.91;5283129;27;32382;-92
2021/05/21 03:07:31;;;;;;;;;;;;;;;17.70;42.76;100325.37;5282668;27;32110;-91
2021/05/21 03:09:59;;;;;;;;;;;;;;;18.68;40.63;100319.31;5299690;27;33436;-91
2021/05/21 03:12:27;;;;;;;;;;;;;;;18.16;41.67;100319.50;5281258;27;32893;-93
2021/05/21 03:14:56;;;;;;;;;;;;;;;18.28;41.53;100318.84;5299387;27;34037;-92
2021/05/21 03:17:27;;;;;;;;;;;;;;;18.50;40.98;100317.69;5299310;27;32159;-91
2021/05/21 03:19:55;;;;;;;;;;;;;;;18.25;41.44;100316.38;5281425;27;32880;-92
2021/05/21 03:22:24;;;;;;;;;;;;;;;18.29;41.45;100319.69;5282209;27;33064;-90
2021/05/21 03:24:52;;;;;;;;;;;;;;;18.26;41.54;100325.16;5299568;27;32993;-91
2021/05/21 03:27:24;;;;;;;;;;;;;;;18.29;41.43;100324.97;5282418;27;32086;-92
2021/05/21 03:29:52;;;;;;;;;;;;;;;18.75;40.36;100318.97;5281973;27;33064;-92
2021/05/21 03:32:21;;;;;;;;;;;;;;;18.02;42.02;100323.72;5281464;27;33339;-91
2021/05/21 03:34:51;;;;;;;;;;;;;;;18.58;40.96;100314.63;5317423;26;33547;-91
2021/05/21 03:37:18;;;;;;;;;;;;;;;18.83;40.18;100314.94;5282304;27;32211;-91
2021/05/21 03:39:48;;;;;;;;;;;;;;;18.85;40.19;100320.12;5316476;27;33888;-91
2021/05/21 03:42:36;;;;;;;;;;;;;;;18.59;40.85;100334.81;5284533;27;33336;-91
2021/05/21 03:45:05;;;;;;;;;;;;;;;18.61;40.40;100328.47;5262895;27;33265;-92
2021/05/21 03:47:34;;;;;;;;;;;;;;;19.00;39.45;100318.47;5280464;27;31970;-91
2021/05/21 03:50:02;;;;;;;;;;;;;;;18.58;40.47;100326.03;5281281;27;33723;-92
2021/05/21 03:52:32;;;;;;;;;;;;;;;18.70;40.15;100321.84;5281440;27;33459;-92
2021/05/21 03:55:00;;;;;;;;;;;;;;;18.92;39.89;100325.94;5299417;27;33455;-94
2021/05/21 03:57:30;;;;;;;;;;;;;;;18.96;39.51;100325.72;5299619;27;33226;-91
2021/05/21 03:59:59;;;;;;;;;;;;;;;19.01;39.13;100326.31;5281718;27;33070;-92
2021/05/21 04:02:27;;;;;;;;;;;;;;;19.09;39.01;100330.28;5281288;27;32901;-91
2021/05/21 04:04:59;;;;;;;;;;;;;;;18.73;39.69;100320.84;5282134;27;32673;-92
2021/05/21 04:07:29;;;;;;;;;;;;;;;18.96;39.35;100323.06;5281602;27;32412;-91
2021/05/21 04:09:57;;;;;;;;;;;;;;;19.21;38.78;100331.38;5283501;27;34031;-91
2021/05/21 04:12:25;;;;;;;;;;;;;;;19.12;39.08;100328.31;5299186;27;34198;-90
2021/05/21 04:14:57;;;;;;;;;;;;;;;19.32;38.68;100324.53;5281528;27;33086;-91
2021/05/21 04:17:26;;;;;;;;;;;;;;;19.35;38.76;100328.78;5262767;27;32405;-92
2021/05/21 04:19:53;;;;;;;;;;;;;;;19.44;38.63;100330.03;5281193;27;32892;-91
2021/05/21 04:22:21;;;;;;;;;;;;;;;19.76;38.06;100333.41;5298415;27;33205;-92
2021/05/21 04:24:51;;;;;;;;;;;;;;;19.42;38.77;100334.56;5283691;27;32751;-92
2021/05/21 04:27:19;;;;;;;;;;;;;;;19.77;38.18;100339.53;5300116;27;32179;-93
2021/05/21 04:29:47;;;;;;;;;;;;;;;19.72;38.34;100331.03;5281501;27;32908;-93
2021/05/21 04:32:15;;;;;;;;;;;;;;;19.95;37.94;100333.19;5282426;27;33209;-92
2021/05/21 04:34:44;;;;;;;;;;;;;;;19.83;38.18;100329.47;5279397;27;34075;-94
2021/05/21 04:37:12;;;;;;;;;;;;;;;20.42;37.18;100325.03;5296968;27;32892;-92
2021/05/21 04:39:41;;;;;;;;;;;;;;;20.33;37.31;100332.63;5296247;27;33333;-90
2021/05/21 04:42:09;;;;;;;;;;;;;;;20.57;36.92;100324.09;5311958;27;33385;-93
2021/05/21 04:44:37;;;;;;;;;;;;;;;20.71;36.60;100327.69;5281865;27;32509;-92
2021/05/21 04:47:07;;;;;;;;;;;;;;;20.72;36.54;100327.56;5300482;27;32065;-92
2021/05/21 04:49:35;;;;;;;;;;;;;;;21.07;35.96;100331.53;5284694;27;32935;-92
2021/05/21 04:52:07;;;;;;;;;;;;;;;20.70;36.58;100326.81;5302783;27;33036;-90
2021/05/21 04:54:37;;;;;;;;;;;;;;;20.78;36.34;100329.84;5300388;27;34699;-90
2021/05/21 04:57:05;;;;;;;;;;;;;;;20.26;37.29;100331.31;5316194;27;32762;-91
2021/05/21 04:59:33;;;;;;;;;;;;;;;20.79;36.59;100330.69;5284535;27;33192;-91
2021/05/21 05:02:02;;;;;;;;;;;;;;;20.66;36.80;100333.22;5301360;27;34093;-90
2021/05/21 05:04:29;;;;;;;;;;;;;;;20.79;36.77;100336.81;5298308;27;33106;-91
2021/05/21 05:06:57;;;;;;;;;;;;;;;20.24;38.14;100338.47;5318003;27;32831;-91
2021/05/21 05:09:26;;;;;;;;;;;;;;;20.15;38.74;100325.81;5281703;27;33757;-91
2021/05/21 05:11:55;;;;;;;;;;;;;;;20.95;37.16;100325.25;5300366;27;33224;-91
2021/05/21 05:14:23;;;;;;;;;;;;;;;21.15;36.22;100329.22;5279962;27;32953;-91
2021/05/21 05:16:51;;;;;;;;;;;;;;;21.05;36.50;100334.28;5298642;27;32093;-91
2021/05/21 05:19:19;;;;;;;;;;;;;;;20.69;37.62;100341.03;5298337;27;33885;-91
2021/05/21 05:21:48;;;;;;;;;;;;;;;20.67;37.55;100333.16;5316077;27;34807;-90
2021/05/21 05:24:17;;;;;;;;;;;;;;;20.82;37.44;100327.81;5297888;27;34372;-91
2021/05/21 05:26:45;;;;;;;;;;;;;;;21.18;36.81;100334.34;5297398;27;32093;-90
2021/05/21 05:29:12;;;;;;;;;;;;;;;21.46;36.51;100329.81;5298354;27;34694;-90
2021/05/21 05:31:45;;;;;;;;;;;;;;;21.16;37.23;100328.28;5299275;27;33937;-92
2021/05/21 05:34:14;;;;;;;;;;;;;;;21.34;36.78;100332.37;5298256;27;33804;-91
2021/05/21 05:36:43;;;;;;;;;;;;;;;21.41;36.80;100334.63;5300088;27;32350;-92
2021/05/21 05:39:11;;;;;;;;;;;;;;;21.24;37.30;100328.63;5282715;27;32958;-91
2021/05/21 05:41:41;;;;;;;;;;;;;;;21.52;36.65;100332.06;5299484;27;34487;-92
2021/05/21 05:44:10;;;;;;;;;;;;;;;21.71;36.27;100330.84;5281129;27;32623;-92
2021/05/21 05:46:38;;;;;;;;;;;;;;;22.05;35.79;100341.81;5282054;27;32213;-93
2021/05/21 05:49:07;;;;;;;;;;;;;;;22.45;35.24;100344.34;5279775;27;33495;-92
2021/05/21 05:51:36;;;;;;;;;;;;;;;22.71;34.79;100336.28;5278762;27;33845;-92
2021/05/21 05:54:04;;;;;;;;;;;;;;;22.97;34.32;100340.53;5278934;27;33146;-92
2021/05/21 05:56:32;;;;;;;;;;;;;;;23.16;33.96;100345.41;5315693;27;33990;-92
2021/05/21 05:59:00;;;;;;;;;;;;;;;22.77;34.78;100343.81;5297027;27;33597;-92
2021/05/21 06:01:28;;;;;;;;;;;;;;;22.86;34.61;100340.50;5279819;27;32969;-91
2021/05/21 06:03:57;;;;;;;;;;;;;;;23.05;33.97;100344.47;5280332;27;33786;-92
2021/05/21 06:06:25;;;;;;;;;;;;;;;23.27;33.54;100344.59;5279383;27;32819;-92
2021/05/21 06:08:57;;;;;;;;;;;;;;;23.74;32.55;100333.13;5279856;27;33083;-93
2021/05/21 06:11:25;;;;;;;;;;;;;;;23.53;32.81;100333.78;5315519;27;34360;-90
2021/05/21 06:13:54;;;;;;;;;;;;;;;23.25;32.74;100340.34;5299589;27;32899;-92
2021/05/21 06:16:23;;;;;;;;;;;;;;;23.80;31.95;100335.28;5298143;27;32383;-90
2021/05/21 06:18:51;;;;;;;;;;;;;;;24.33;31.06;100340.94;5299484;27;33856;-91
2021/05/21 06:21:19;;;;;;;;;;;;;;;24.32;30.63;100328.59;5281453;27;34585;-92
2021/05/21 06:23:49;;;;;;;;;;;;;;;24.62;29.91;100328.91;5281047;27;34007;-92
2021/05/21 06:26:41;;;;;;;;;;;;;;;24.55;29.90;100325.06;5283463;27;32495;-92
2021/05/21 06:29:12;;;;;;;;;;;;;;;24.30;29.99;100317.19;5280890;27;33196;-93
2021/05/21 06:31:40;;;;;;;;;;;;;;;24.85;29.43;100321.75;5280512;27;32931;-92
2021/05/21 06:34:09;;;;;;;;;;;;;;;24.94;29.42;100325.47;5288130;27;32645;-92
2021/05/21 06:36:37;;;;;;;;;;;;;;;24.96;29.23;100327.03;5308810;27;32163;-92
2021/05/21 06:39:05;;;;;;;;;;;;;;;25.01;28.55;100326.69;5302229;27;34246;-92
2021/05/21 06:41:34;;;;;;;;;;;;;;;25.03;28.28;100329.22;5281339;27;33016;-92
2021/05/21 06:44:06;;;;;;;;;;;;;;;24.68;28.70;100331.13;5279842;27;32833;-90
2021/05/21 06:46:34;;;;;;;;;;;;;;;24.94;27.71;100325.47;5280020;27;32124;-93
2021/05/21 06:49:05;;;;;;;;;;;;;;;24.79;28.76;100319.59;5281646;27;33127;-92
2021/05/21 06:51:33;;;;;;;;;;;;;;;24.53;29.10;100322.53;5281848;27;32941;-93
2021/05/21 06:54:01;;;;;;;;;;;;;;;24.80;28.52;100319.47;5278794;27;32459;-92
2021/05/21 06:56:28;;;;;;;;;;;;;;;24.63;28.95;100320.00;5279571;27;32840;-92
2021/05/21 06:58:57;;;;;;;;;;;;;;;25.10;28.04;100311.72;5311605;27;33184;-92
2021/05/21 07:01:24;;;;;;;;;;;;;;;25.56;27.06;100315.06;5279795;27;34191;-91
2021/05/21 07:03:52;;;;;;;;;;;;;;;25.09;27.31;100307.34;5280059;27;32837;-93
2021/05/21 07:06:22;;;;;;;;;;;;;;;25.23;27.12;100312.38;5279455;27;31956;-91
2021/05/21 07:08:50;;;;;;;;;;;;;;;25.84;26.53;100311.69;5280738;27;32964;-91
2021/05/21 07:11:17;;;;;;;;;;;;;;;25.72;26.43;100304.75;5317941;27;33494;-92
2021/05/21 07:13:46;;;;;;;;;;;;;;;25.82;26.50;100304.78;5299134;27;33885;-92
2021/05/21 07:16:13;;;;;;;;;;;;;;;26.49;25.91;100307.91;5279118;27;33040;-91
2021/05/21 07:18:46;;;;;;;;;;;;;;;26.40;26.07;100300.69;5261654;27;32855;-91
2021/05/21 07:21:14;;;;;;;;;;;;;;;26.43;26.21;100308.44;5278060;27;33279;-89
2021/05/21 07:23:55;;;;;;;;;;;;;;;26.02;25.89;100303.06;5296852;27;34314;-89
2021/05/21 07:26:23;;;;;;;;;;;;;;;26.21;24.05;100305.00;5277756;27;33498;-85
2021/05/21 07:28:53;;;;;;;;;;;;;;;26.04;23.66;100297.63;5296557;27;34645;-85
2021/05/21 07:31:26;;;;;;;;;;;;;;;26.89;22.93;100298.16;5274539;27;33736;-85
2021/05/21 07:33:54;;;;;;;;;;;;;;;27.07;23.06;100298.28;5278317;27;34690;-85
2021/05/21 07:36:23;;;;;;;;;;;;;;;26.94;23.15;100290.56;5296902;27;33156;-88
2021/05/21 07:38:51;;;;;;;;;;;;;;;27.21;22.67;100292.50;5278500;27;33935;-88
2021/05/21 07:41:22;;;;;;;;;;;;;;;27.27;22.54;100289.28;5296363;27;33125;-87
2021/05/21 07:43:54;;;;;;;;;;;;;;;27.22;22.64;100293.38;5278257;27;32980;-87
2021/05/21 07:46:23;;;;;;;;;;;;;;;27.11;22.27;100297.00;5315335;27;33931;-88
2021/05/21 07:48:51;;;;;;;;;;;;;;;27.33;22.33;100295.88;5316390;27;33212;-88
2021/05/21 07:51:20;;;;;;;;;;;;;;;27.35;22.90;100291.22;5278990;27;33035;-85
2021/05/21 07:53:48;;;;;;;;;;;;;;;26.64;23.56;100290.47;5281377;27;32950;-87
2021/05/21 07:56:17;;;;;;;;;;;;;;;26.49;22.80;100297.22;5298243;27;32407;-88
2021/05/21 07:58:45;;;;;;;;;;;;;;;25.65;23.07;100303.59;5282091;27;34311;-89
2021/05/21 08:01:13;;;;;;;;;;;;;;;25.56;23.83;100291.87;5280649;27;32999;-90
2021/05/21 08:03:41;;;;;;;;;;;;;;;25.60;23.31;100300.47;5296860;27;33057;-89
2021/05/21 08:06:10;;;;;;;;;;;;;;;24.88;23.94;100297.50;5314821;27;32245;-89
2021/05/21 08:08:38;;;;;;;;;;;;;;;25.36;24.32;100292.75;5297929;27;33986;-89
2021/05/21 08:11:06;;;;;;;;;;;;;;;24.62;25.04;100294.28;5278877;27;33302;-88
2021/05/21 08:13:37;;;;;;;;;;;;;;;23.51;27.84;100299.34;5295821;27;33209;-89
2021/05/21 08:16:10;;;;;;;;;;;;;;;23.59;27.51;100295.25;5316262;27;34131;-89
2021/05/21 08:18:37;;;;;;;;;;;;;;;24.65;25.96;100286.06;5295918;27;32926;-89
2021/05/21 08:21:06;;;;;;;;;;;;;;;24.73;26.08;100280.13;5296344;27;33506;-90
2021/05/21 08:23:34;;;;;;;;;;;;;;;23.72;28.00;100285.38;5295830;27;32862;-89
2021/05/21 08:26:02;;;;;;;;;;;;;;;24.22;27.16;100276.19;5295964;27;33315;-90
2021/05/21 08:28:30;;;;;;;;;;;;;;;24.40;26.75;100281.84;5287110;27;32997;-89
2021/05/21 08:30:58;;;;;;;;;;;;;;;25.06;26.13;100279.12;5273943;27;33347;-89
2021/05/21 08:33:25;;;;;;;;;;;;;;;24.94;26.62;100281.03;5292368;27;33644;-89
2021/05/21 08:35:53;;;;;;;;;;;;;;;25.30;26.76;100284.25;5291189;27;32848;-89
2021/05/21 08:38:20;;;;;;;;;;;;;;;24.51;26.91;100288.00;5296227;27;33014;-90
2021/05/21 08:40:48;;;;;;;;;;;;;;;25.75;24.86;100287.63;5289877;27;33020;-88
2021/05/21 08:43:16;;;;;;;;;;;;;;;24.54;27.13;100289.56;5294515;27;32892;-93
2021/05/21 08:45:44;;;;;;;;;;;;;;;24.97;26.76;100277.22;5277830;27;32976;-90
2021/05/21 08:48:13;;;;;;;;;;;;;;;24.26;27.95;100274.97;5296043;27;34631;-89
2021/05/21 08:50:42;;;;;;;;;;;;;;;24.24;28.03;100264.47;5296172;27;34084;-90
2021/05/21 08:53:10;;;;;;;;;;;;;;;24.59;27.04;100255.41;5314449;27;34618;-89
2021/05/21 08:55:38;;;;;;;;;;;;;;;24.49;26.84;100271.31;5296034;27;32066;-89
2021/05/21 08:58:13;;;;;;;;;;;;;;;24.40;26.50;100257.87;5314250;27;33726;-89
2021/05/21 09:00:41;;;;;;;;;;;;;;;24.60;26.56;100251.78;5314248;27;34097;-89
2021/05/21 09:03:20;;;;;;;;;;;;;;;24.17;26.47;100249.94;5296189;27;32530;-89
2021/05/21 09:06:05;;;;;;;;;;;;;;;24.19;27.06;100248.00;5296236;27;32432;-90
2021/05/21 09:08:34;;;;;;;;;;;;;;;24.17;27.49;100249.94;5260159;27;32961;-88
2021/05/21 09:11:03;;;;;;;;;;;;;;;24.98;26.44;100244.28;5314575;27;33676;-89
2021/05/21 09:13:46;;;;;;;;;;;;;;;24.57;27.44;100246.72;5280747;27;33276;-89
2021/05/21 09:16:21;;;;;;;;;;;;;;;24.31;26.68;100249.66;5298164;27;33419;-88
2021/05/21 09:19:06;;;;;;;;;;;;;;;24.27;26.70;100245.56;5278695;27;34109;-88
2021/05/21 09:21:53;;;;;;;;;;;;;;;23.99;27.51;100249.59;5298363;27;33159;-88
2021/05/21 09:24:24;;;;;;;;;;;;;;;24.32;26.93;100245.22;5280107;27;32976;-90
2021/05/21 09:26:52;;;;;;;;;;;;;;;24.02;27.00;100244.03;5315413;27;32257;-90
2021/05/21 09:29:31;;;;;;;;;;;;;;;24.78;25.99;100233.50;5297269;27;33816;-91
2021/05/21 09:31:59;;;;;;;;;;;;;;;23.79;27.33;100233.37;5297368;27;33629;-91
2021/05/21 09:34:33;;;;;;;;;;;;;;;24.75;26.63;100233.72;5287003;27;32445;-90
2021/05/21 09:37:01;;;;;;;;;;;;;;;24.05;28.21;100233.13;5296327;27;32576;-89
2021/05/21 09:40:00;;;;;;;;;;;;;;;24.12;28.55;100233.50;5297487;27;34850;-89
2021/05/21 09:42:42;;;;;;;;;;;;;;;23.61;29.71;100241.00;5274758;27;34118;-89
2021/05/21 09:45:13;;;;;;;;;;;;;;;24.65;28.04;100240.78;5294031;27;33991;-90
2021/05/21 09:48:04;;;;;;;;;;;;;;;24.94;26.90;100232.19;5314591;27;33149;-89
2021/05/21 09:50:50;;;;;;;;;;;;;;;24.76;26.54;100242.59;5272940;27;33615;-93
2021/05/21 09:53:24;;;;;;;;;;;;;;;24.56;26.99;100229.03;5297371;27;33628;-94
2021/05/21 09:55:53;;;;;;;;;;;;;;;24.50;27.53;100229.53;5298917;27;33245;-89
2021/05/21 09:58:42;;;;;;;;;;;;;;;24.31;28.51;100223.06;5278952;27;32844;-88
2021/05/21 10:01:13;;;;;;;;;;;;;;;24.56;27.47;100221.06;5315217;27;34784;-88
2021/05/21 10:03:55;;;;;;;;;;;;;;;23.52;28.55;100221.25;5298464;27;34738;-88
2021/05/21 10:06:24;;;;;;;;;;;;;;;23.54;28.79;100209.66;5314427;27;33895;-90
2021/05/21 10:08:55;;;;;;;;;;;;;;;24.18;28.28;100215.22;5295893;27;32085;-89
2021/05/21 10:11:23;;;;;;;;;;;;;;;24.19;28.75;100210.75;5296507;27;32950;-88
2021/05/21 10:13:50;;;;;;;;;;;;;;;24.82;27.79;100216.28;5296745;27;33935;-89
2021/05/21 10:16:19;;;;;;;;;;;;;;;24.72;26.96;100209.16;5298266;27;32955;-90
2021/05/21 10:18:49;;;;;;;;;;;;;;;24.28;27.21;100202.00;5316175;27;33215;-89
2021/05/21 10:21:18;;;;;;;;;;;;;;;26.04;24.55;100199.69;5296656;27;33690;-90
2021/05/21 10:23:56;;;;;;;;;;;;;;;25.32;25.91;100196.94;5296778;27;33339;-89
2021/05/21 10:26:28;;;;;;;;;;;;;;;25.74;26.41;100203.22;5315216;27;34769;-91
2021/05/21 10:28:56;;;;;;;;;;;;;;;25.41;26.20;100190.00;5297347;27;32378;-90
2021/05/21 10:31:24;;;;;;;;;;;;;;;24.81;26.92;100189.72;5316502;27;34052;-92
2021/05/21 10:34:09;;;;;;;;;;;;;;;24.90;27.92;100183.63;5291046;27;33080;-89
2021/05/21 10:36:55;;;;;;;;;;;;;;;25.07;26.23;100186.69;5289800;27;32890;-89
2021/05/21 10:39:58;;;;;;;;;;;;;;;24.83;26.67;100174.47;5292070;27;34110;-89
2021/05/21 10:42:45;;;;;;;;;;;;;;;24.64;27.36;100165.34;5299818;27;32815;-89
2021/05/21 10:45:16;;;;;;;;;;;;;;;24.08;28.12;100168.16;5297687;27;33315;-91
2021/05/21 10:47:46;;;;;;;;;;;;;;;25.08;26.14;100167.06;5320259;27;34006;-90
2021/05/21 10:50:18;;;;;;;;;;;;;;;25.77;25.30;100154.94;5323245;27;33361;-90
2021/05/21 10:52:52;;;;;;;;;;;;;;;25.87;25.82;100158.44;5303727;27;34497;-89
2021/05/21 10:55:37;;;;;;;;;;;;;;;26.04;25.29;100148.13;5301200;27;33242;-91
2021/05/21 10:58:04;;;;;;;;;;;;;;;26.19;25.11;100154.75;5296589;27;33295;-92
2021/05/21 11:00:34;;;;;;;;;;;;;;;25.85;26.01;100157.75;5296950;27;32628;-90
2021/05/21 11:03:02;;;;;;;;;;;;;;;26.61;25.01;100146.47;5314541;27;34787;-89
2021/05/21 11:05:35;;;;;;;;;;;;;;;25.52;26.16;100150.91;5314935;27;34149;-90
2021/05/21 11:08:03;;;;;;;;;;;;;;;25.06;27.54;100153.84;5296927;27;32183;-89
2021/05/21 11:10:34;;;;;;;;;;;;;;;26.22;25.32;100130.44;5296251;27;33322;-89
2021/05/21 11:13:13;;;;;;;;;;;;;;;25.12;27.27;100129.34;5314257;27;33965;-88
2021/05/21 11:15:47;;;;;;;;;;;;;;;25.40;26.29;100118.97;5280716;27;34074;-89
2021/05/21 11:18:16;;;;;;;;;;;;;;;25.41;25.90;100114.47;5296337;27;32940;-89
2021/05/21 11:20:51;;;;;;;;;;;;;;;25.42;26.83;100111.69;5296415;27;34058;-91
2021/05/21 11:23:26;;;;;;;;;;;;;;;25.68;26.77;100095.19;5278374;27;32971;-92
2021/05/21 11:26:03;;;;;;;;;;;;;;;26.30;26.32;100095.03;5296553;27;34031;-91
2021/05/21 11:28:37;;;;;;;;;;;;;;;25.43;25.85;100113.38;5295846;27;33959;-91
2021/05/21 11:31:09;;;;;;;;;;;;;;;26.22;24.91;100105.56;5314334;27;32319;-90
2021/05/21 11:33:38;;;;;;;;;;;;;;;26.67;24.79;100100.47;5295629;27;32730;-90
2021/05/21 11:36:06;;;;;;;;;;;;;;;26.45;25.67;100101.63;5296302;27;32992;-89
2021/05/21 11:38:36;;;;;;;;;;;;;;;26.87;25.22;100095.13;5295512;27;32998;-89
2021/05/21 11:41:04;;;;;;;;;;;;;;;25.90;25.78;100098.59;5295602;27;32327;-90
2021/05/21 11:43:32;;;;;;;;;;;;;;;25.11;26.49;100094.81;5314677;27;32951;-89
2021/05/21 11:46:00;;;;;;;;;;;;;;;25.45;26.63;100099.91;5295609;27;34045;-89
2021/05/21 11:48:38;;;;;;;;;;;;;;;25.36;26.52;100092.72;5260935;27;33568;-89
2021/05/21 11:51:13;;;;;;;;;;;;;;;26.00;26.09;100081.63;5315999;27;32532;-90
2021/05/21 11:54:04;;;;;;;;;;;;;;;25.20;26.42;100088.69;5299675;27;33009;-90
2021/05/21 11:56:32;;;;;;;;;;;;;;;26.25;25.30;100083.94;5298438;27;33519;-89
2021/05/21 11:59:01;;;;;;;;;;;;;;;26.93;24.18;100067.81;5281031;27;33160;-90
2021/05/21 12:01:29;;;;;;;;;;;;;;;26.18;25.26;100059.62;5297551;27;32525;-88
2021/05/21 12:04:01;;;;;;;;;;;;;;;27.07;25.42;100063.84;5317642;27;33930;-90
2021/05/21 12:06:31;;;;;;;;;;;;;;;26.15;26.32;100067.87;5316628;27;35013;-90
2021/05/21 12:08:59;;;;;;;;;;;;;;;26.28;25.75;100073.78;5298749;27;33731;-89
2021/05/21 12:11:27;;;;;;;;;;;;;;;25.43;26.13;100073.34;5298310;27;31989;-90
2021/05/21 12:14:04;;;;;;;;;;;;;;;26.67;24.92;100076.44;5298774;27;32765;-89
2021/05/21 12:16:33;;;;;;;;;;;;;;;26.17;25.94;100073.94;5280006;27;32960;-89
2021/05/21 12:19:05;;;;;;;;;;;;;;;26.58;25.39;100063.94;5313048;27;33574;-88
2021/05/21 12:21:41;;;;;;;;;;;;;;;27.06;24.74;100072.84;5282832;27;32924;-89
2021/05/21 12:24:12;;;;;;;;;;;;;;;27.03;25.10;100066.94;5300343;27;32506;-90
2021/05/21 12:26:41;;;;;;;;;;;;;;;26.65;25.84;100072.22;5298659;27;34091;-92
2021/05/21 12:29:10;;;;;;;;;;;;;;;25.59;27.39;100074.69;5317291;27;33194;-89
2021/05/21 12:31:47;;;;;;;;;;;;;;;26.44;26.41;100069.72;5298626;27;32489;-90
2021/05/21 12:34:15;;;;;;;;;;;;;;;26.12;26.62;100066.34;5317283;26;33439;-91
2021/05/21 12:36:51;;;;;;;;;;;;;;;26.20;26.38;100064.81;5299529;27;33037;-91
2021/05/21 12:39:19;;;;;;;;;;;;;;;26.36;26.12;100062.41;5319742;27;33923;-91
2021/05/21 12:41:47;;;;;;;;;;;;;;;27.32;24.48;100058.78;5320098;27;32925;-91
2021/05/21 12:44:14;;;;;;;;;;;;;;;27.10;24.73;100054.69;5303105;27;33198;-91
2021/05/21 12:46:45;;;;;;;;;;;;;;;27.03;25.23;100043.72;5282748;27;33167;-90
2021/05/21 12:49:14;;;;;;;;;;;;;;;27.79;24.40;100045.28;5318193;27;33837;-90
2021/05/21 12:51:41;;;;;;;;;;;;;;;26.02;25.86;100049.47;5300080;27;32958;-90